Beards Fork, West Virginia
Current Conditions -  °F | °C
As of 6:51 AM on Sunday 21 Dec 2014 (Local Time) from KBKW Reporting Station
Clear Clear  
Wind Chill: -2°   Ceiling: Unl
Heat Index: -2°   Visibility: 10mi
Dew Point: -4°   Wind: 0mph
Humidity: 88%   Direction: NA
Pressure: 30.21"   Gusts: NA
Location:  38.096°N, 81.2492°W
Report Text: KBKW 211151Z AUTO 00000KT 10SM CLR M02/M04 A3021 RMK AO2 SLP260 T10221039 10000 21022 53007
Loading
Personal Weather Stations






























Interactive Weather Map New forecast layout! Learn more

10-Day Weather Forecast

Advertisements
Track Severe Weather on mobile